Time;durP1;ratioP1;P1;durP2;ratioP2;P2;SDS_P1;SDS_P2;PMS_P1;PMS_P2;Temp;Humidity;BMP_temperature;BMP_pressure;BME280_temperature;BME280_humidity;BME280_pressure;Samples;Min_cycle;Max_cycle;Signal;HPM_P1;HPM_P2
2024/01/20 00:02:06;;;;;;;6.38;1.73;;;;;;;;;;5050057;28;20052;-74
2024/01/20 00:05:46;;;;;;;8.82;1.75;;;;;;;;;;5046930;28;20474;-73
2024/01/20 00:09:27;;;;;;;6.40;1.70;;;;;;;;;;5050629;28;20049;-74
2024/01/20 00:13:07;;;;;;;2.55;1.42;;;;;;;;;;5049181;28;20067;-74
2024/01/20 00:16:47;;;;;;;3.28;1.52;;;;;;;;;;5045557;28;20048;-73
2024/01/20 00:20:28;;;;;;;2.60;1.25;;;;;;;;;;5047214;28;20051;-73
2024/01/20 00:24:11;;;;;;;8.88;2.33;;;;;;;;;;5053145;28;20044;-73
2024/01/20 00:27:51;;;;;;;5.75;1.33;;;;;;;;;;5040210;28;20096;-72
2024/01/20 00:31:37;;;;;;;3.00;1.35;;;;;;;;;;5044898;28;20432;-73
2024/01/20 00:35:17;;;;;;;2.97;1.30;;;;;;;;;;5052317;28;20111;-73
2024/01/20 00:38:58;;;;;;;4.63;1.20;;;;;;;;;;5051738;28;20049;-77
2024/01/20 00:42:39;;;;;;;6.45;1.73;;;;;;;;;;5050115;28;20710;-75
2024/01/20 00:46:21;;;;;;;4.10;1.45;;;;;;;;;;5046048;28;20396;-74
2024/01/20 00:50:04;;;;;;;9.43;1.65;;;;;;;;;;5050423;28;20306;-73
2024/01/20 00:53:42;;;;;;;6.60;2.28;;;;;;;;;;5047329;28;20107;-73
2024/01/20 00:57:22;;;;;;;2.28;1.23;;;;;;;;;;5047628;28;20198;-73
2024/01/20 01:01:04;;;;;;;5.50;1.33;;;;;;;;;;5051173;28;20040;-73
2024/01/20 01:04:44;;;;;;;2.47;1.25;;;;;;;;;;5039240;28;20041;-73
2024/01/20 01:08:24;;;;;;;2.47;1.52;;;;;;;;;;5049405;28;20055;-74
2024/01/20 01:12:06;;;;;;;3.30;1.20;;;;;;;;;;5049328;28;20468;-74
2024/01/20 01:15:46;;;;;;;3.47;1.50;;;;;;;;;;5043459;28;20063;-73
2024/01/20 01:19:28;;;;;;;1.95;1.55;;;;;;;;;;5045742;28;20083;-73
2024/01/20 01:23:08;;;;;;;3.88;2.67;;;;;;;;;;5044748;28;20475;-74
2024/01/20 01:26:50;;;;;;;4.10;2.75;;;;;;;;;;5044544;28;20044;-73
2024/01/20 01:30:30;;;;;;;4.63;2.40;;;;;;;;;;5045712;28;20044;-73
2024/01/20 01:34:11;;;;;;;4.25;2.15;;;;;;;;;;5050742;28;20421;-73
2024/01/20 01:37:51;;;;;;;2.22;1.63;;;;;;;;;;5046298;28;20477;-73
2024/01/20 01:41:31;;;;;;;4.22;1.70;;;;;;;;;;5044868;28;20040;-73
2024/01/20 01:45:12;;;;;;;1.73;1.33;;;;;;;;;;5051026;28;20068;-74
2024/01/20 01:48:54;;;;;;;3.10;1.73;;;;;;;;;;5045719;28;20045;-72
2024/01/20 01:52:35;;;;;;;3.95;2.03;;;;;;;;;;5047271;28;20431;-76
2024/01/20 01:56:15;;;;;;;3.47;1.98;;;;;;;;;;5051642;28;20041;-72
2024/01/20 01:59:55;;;;;;;3.78;2.28;;;;;;;;;;5043159;28;20061;-71
2024/01/20 02:03:37;;;;;;;5.25;1.70;;;;;;;;;;5049986;28;20045;-72
2024/01/20 02:07:17;;;;;;;6.20;1.58;;;;;;;;;;5049649;28;20052;-73
2024/01/20 02:10:58;;;;;;;3.63;1.40;;;;;;;;;;5050978;28;20053;-73
2024/01/20 02:14:38;;;;;;;5.85;1.33;;;;;;;;;;5044570;28;20065;-71
2024/01/20 02:18:31;;;;;;;4.85;1.23;;;;;;;;;;5047961;28;20032;-74
2024/01/20 02:22:11;;;;;;;4.90;1.35;;;;;;;;;;5040472;28;20103;-75
2024/01/20 02:25:54;;;;;;;5.03;1.17;;;;;;;;;;5050244;28;20063;-74
2024/01/20 02:29:34;;;;;;;10.15;2.13;;;;;;;;;;5050451;28;20052;-72
2024/01/20 02:33:14;;;;;;;5.80;1.70;;;;;;;;;;5047662;28;20500;-73
2024/01/20 02:36:56;;;;;;;5.15;1.17;;;;;;;;;;5049509;28;20245;-72
2024/01/20 02:40:36;;;;;;;5.35;1.30;;;;;;;;;;5046515;28;20103;-74
2024/01/20 02:44:18;;;;;;;10.00;1.15;;;;;;;;;;5049922;28;20128;-73
2024/01/20 02:47:58;;;;;;;7.68;1.23;;;;;;;;;;5049273;28;20186;-74
2024/01/20 02:51:38;;;;;;;6.45;1.35;;;;;;;;;;5050140;28;20071;-73
2024/01/20 02:55:19;;;;;;;6.28;1.10;;;;;;;;;;5049447;28;20245;-73
2024/01/20 02:59:01;;;;;;;4.45;1.17;;;;;;;;;;5045020;28;20048;-72
2024/01/20 03:02:57;;;;;;;5.82;1.10;;;;;;;;;;5049008;28;20084;-72
2024/01/20 03:06:37;;;;;;;3.03;1.10;;;;;;;;;;5043570;28;20061;-72
2024/01/20 03:10:18;;;;;;;10.57;1.17;;;;;;;;;;5047549;28;20744;-71
2024/01/20 03:13:58;;;;;;;9.68;1.20;;;;;;;;;;5048923;28;20045;-72
2024/01/20 03:17:40;;;;;;;5.15;0.90;;;;;;;;;;5046200;28;20052;-72
2024/01/20 03:21:20;;;;;;;5.72;1.10;;;;;;;;;;5052535;28;20080;-73
2024/01/20 03:25:01;;;;;;;7.95;1.30;;;;;;;;;;5043062;28;20060;-71
2024/01/20 03:28:41;;;;;;;6.95;1.02;;;;;;;;;;5044508;28;20041;-74
2024/01/20 03:32:21;;;;;;;3.17;1.00;;;;;;;;;;5050668;28;20484;-71
2024/01/20 03:36:02;;;;;;;5.10;0.90;;;;;;;;;;5045603;28;20048;-72
2024/01/20 03:39:43;;;;;;;4.90;0.90;;;;;;;;;;5044446;28;20049;-72
2024/01/20 03:43:24;;;;;;;16.17;2.15;;;;;;;;;;5040963;28;20124;-73
2024/01/20 03:47:05;;;;;;;2.72;0.77;;;;;;;;;;5044409;28;20057;-72
2024/01/20 03:50:47;;;;;;;3.75;1.00;;;;;;;;;;5047449;28;20040;-72
2024/01/20 03:54:29;;;;;;;8.80;1.00;;;;;;;;;;5045916;28;20045;-72
2024/01/20 03:58:11;;;;;;;3.92;1.40;;;;;;;;;;5040904;28;20053;-72
2024/01/20 04:01:50;;;;;;;7.70;1.33;;;;;;;;;;5048646;28;20048;-73
2024/01/20 04:05:31;;;;;;;7.60;1.35;;;;;;;;;;5042404;28;20517;-74
2024/01/20 04:09:12;;;;;;;5.90;1.27;;;;;;;;;;5047095;28;20186;-71
2024/01/20 04:12:52;;;;;;;3.70;1.02;;;;;;;;;;5044572;28;20056;-71
2024/01/20 04:16:32;;;;;;;3.50;1.38;;;;;;;;;;5051377;28;20079;-72
2024/01/20 04:20:13;;;;;;;8.05;1.52;;;;;;;;;;5044327;28;20469;-73
2024/01/20 04:23:53;;;;;;;6.00;1.52;;;;;;;;;;5040789;28;20076;-72
2024/01/20 04:27:40;;;;;;;5.35;2.00;;;;;;;;;;5055003;28;20131;-73
2024/01/20 04:31:16;;;;;;;11.85;1.77;;;;;;;;;;5047422;28;20037;-73
2024/01/20 04:34:56;;;;;;;13.30;1.52;;;;;;;;;;5046997;28;20390;-72
2024/01/20 04:38:37;;;;;;;10.85;1.45;;;;;;;;;;5044775;28;20421;-72
2024/01/20 04:42:18;;;;;;;9.57;1.45;;;;;;;;;;5048953;28;20037;-72
2024/01/20 04:45:59;;;;;;;5.55;1.35;;;;;;;;;;5043226;28;20143;-73
2024/01/20 04:49:39;;;;;;;6.32;1.00;;;;;;;;;;5048502;28;20036;-73
2024/01/20 04:53:19;;;;;;;5.30;1.10;;;;;;;;;;5039727;28;20230;-74
2024/01/20 04:57:00;;;;;;;5.18;1.30;;;;;;;;;;5040470;28;20566;-73
2024/01/20 05:00:40;;;;;;;5.43;1.00;;;;;;;;;;5045809;28;20080;-74
2024/01/20 05:04:20;;;;;;;8.20;1.23;;;;;;;;;;5045387;28;20083;-73
2024/01/20 05:08:01;;;;;;;10.30;1.17;;;;;;;;;;5045818;28;20110;-71
2024/01/20 05:11:42;;;;;;;7.45;1.33;;;;;;;;;;5049072;28;20485;-72
2024/01/20 05:15:23;;;;;;;10.20;1.92;;;;;;;;;;5042573;28;20045;-72
2024/01/20 05:19:03;;;;;;;4.85;0.90;;;;;;;;;;5046800;28;20056;-72
2024/01/20 05:22:45;;;;;;;5.15;0.95;;;;;;;;;;5045720;28;20049;-73
2024/01/20 05:26:25;;;;;;;0.98;0.60;;;;;;;;;;5047287;28;20099;-72
2024/01/20 05:30:07;;;;;;;3.25;0.85;;;;;;;;;;5050837;28;20040;-73
2024/01/20 05:33:48;;;;;;;2.42;0.88;;;;;;;;;;5045131;28;20407;-71
2024/01/20 05:37:31;;;;;;;2.10;0.73;;;;;;;;;;5048465;28;20057;-71
2024/01/20 05:41:11;;;;;;;3.70;0.82;;;;;;;;;;5054425;28;20544;-72
2024/01/20 05:44:51;;;;;;;3.75;0.90;;;;;;;;;;5049865;28;20099;-72
2024/01/20 05:48:32;;;;;;;5.72;0.90;;;;;;;;;;5046382;28;20128;-72
2024/01/20 05:52:12;;;;;;;8.68;2.00;;;;;;;;;;5046754;28;20500;-71
2024/01/20 05:55:55;;;;;;;14.90;1.85;;;;;;;;;;5050816;28;20079;-73
2024/01/20 05:59:36;;;;;;;10.70;1.48;;;;;;;;;;5046271;28;20314;-72
2024/01/20 06:03:18;;;;;;;6.05;1.02;;;;;;;;;;5051753;28;20045;-72
2024/01/20 06:06:58;;;;;;;4.25;0.80;;;;;;;;;;5046378;28;20064;-72
2024/01/20 06:10:40;;;;;;;3.63;0.90;;;;;;;;;;5053070;28;20260;-72
2024/01/20 06:14:20;;;;;;;5.18;1.00;;;;;;;;;;5048023;28;20092;-70
2024/01/20 06:18:01;;;;;;;5.38;1.02;;;;;;;;;;5053571;28;20060;-72
2024/01/20 06:21:46;;;;;;;4.63;1.02;;;;;;;;;;5053484;28;20047;-73
2024/01/20 06:25:28;;;;;;;5.93;1.23;;;;;;;;;;5045646;28;20709;-72
2024/01/20 06:29:08;;;;;;;4.03;1.00;;;;;;;;;;5050250;28;20044;-73
2024/01/20 06:32:49;;;;;;;6.55;2.83;;;;;;;;;;5052304;28;20041;-74
2024/01/20 06:36:31;;;;;;;3.28;1.13;;;;;;;;;;5047245;28;20037;-73
2024/01/20 06:40:11;;;;;;;7.13;3.17;;;;;;;;;;5042155;28;20053;-72
2024/01/20 06:43:52;;;;;;;6.03;1.30;;;;;;;;;;5051749;28;20504;-73
2024/01/20 06:47:32;;;;;;;5.57;0.90;;;;;;;;;;5050080;28;20493;-72
2024/01/20 06:51:17;;;;;;;9.02;1.13;;;;;;;;;;5049226;28;20127;-74
2024/01/20 06:54:57;;;;;;;10.35;1.13;;;;;;;;;;5049646;28;20490;-73
2024/01/20 06:58:40;;;;;;;4.82;1.55;;;;;;;;;;5048035;28;20049;-72
2024/01/20 07:02:21;;;;;;;5.80;1.20;;;;;;;;;;5046633;28;20049;-74
2024/01/20 07:06:02;;;;;;;8.90;1.20;;;;;;;;;;5044522;28;20416;-73
2024/01/20 07:09:42;;;;;;;7.00;1.33;;;;;;;;;;5048428;28;20147;-72
2024/01/20 07:13:23;;;;;;;7.55;1.30;;;;;;;;;;5053666;28;20480;-73
2024/01/20 07:17:05;;;;;;;10.73;1.50;;;;;;;;;;5048884;28;20112;-74
2024/01/20 07:20:45;;;;;;;9.65;1.65;;;;;;;;;;5047079;28;20515;-76
2024/01/20 07:24:27;;;;;;;7.57;1.40;;;;;;;;;;5044502;28;20132;-78
2024/01/20 07:28:09;;;;;;;11.05;1.92;;;;;;;;;;5051339;28;20045;-74
2024/01/20 07:31:56;;;;;;;7.35;1.55;;;;;;;;;;5053122;28;20045;-74
2024/01/20 07:35:40;;;;;;;8.70;2.00;;;;;;;;;;5042655;28;20164;-75
2024/01/20 07:39:23;;;;;;;9.38;2.00;;;;;;;;;;5045242;28;20049;-73
2024/01/20 07:43:06;;;;;;;7.68;2.03;;;;;;;;;;5043347;28;22500;-74
2024/01/20 07:46:47;;;;;;;13.88;4.75;;;;;;;;;;5049761;28;20131;-74
2024/01/20 07:50:28;;;;;;;11.93;2.53;;;;;;;;;;5053300;28;20067;-75
2024/01/20 07:54:12;;;;;;;11.35;2.47;;;;;;;;;;5048161;28;20135;-73
2024/01/20 07:57:52;;;;;;;6.22;2.20;;;;;;;;;;5045658;28;20055;-73
2024/01/20 08:01:33;;;;;;;19.13;3.03;;;;;;;;;;5041086;28;20053;-74
2024/01/20 08:05:14;;;;;;;10.23;2.33;;;;;;;;;;5054021;28;20087;-72
2024/01/20 08:08:55;;;;;;;4.38;1.70;;;;;;;;;;5045021;28;20045;-72
2024/01/20 08:12:35;;;;;;;8.38;2.63;;;;;;;;;;5047437;28;20465;-75
2024/01/20 08:16:18;;;;;;;7.63;2.25;;;;;;;;;;5042025;28;20516;-74
2024/01/20 08:19:59;;;;;;;8.45;1.77;;;;;;;;;;5047765;28;20496;-70
2024/01/20 08:23:39;;;;;;;3.78;1.60;;;;;;;;;;5041778;28;20102;-76
2024/01/20 08:27:19;;;;;;;2.40;1.55;;;;;;;;;;5046380;28;20187;-76
2024/01/20 08:31:01;;;;;;;2.58;1.52;;;;;;;;;;5039078;28;20087;-74
2024/01/20 08:34:42;;;;;;;4.85;1.40;;;;;;;;;;5042141;28;20053;-73
2024/01/20 08:38:23;;;;;;;5.93;1.60;;;;;;;;;;5040174;28;20685;-76
2024/01/20 08:42:03;;;;;;;4.95;1.77;;;;;;;;;;5048573;28;20049;-76
2024/01/20 08:45:43;;;;;;;5.15;1.85;;;;;;;;;;5040702;28;20056;-74
2024/01/20 08:49:24;;;;;;;6.25;1.95;;;;;;;;;;5043904;28;20131;-75
2024/01/20 08:53:04;;;;;;;6.57;2.80;;;;;;;;;;5041231;28;21127;-73
2024/01/20 08:56:45;;;;;;;3.60;2.25;;;;;;;;;;5045103;28;20057;-77
2024/01/20 09:00:27;;;;;;;4.80;2.60;;;;;;;;;;5045681;28;20551;-74
2024/01/20 09:04:07;;;;;;;6.25;2.50;;;;;;;;;;5043890;28;20119;-75
2024/01/20 09:07:48;;;;;;;7.90;3.13;;;;;;;;;;5045008;28;20067;-75
2024/01/20 09:11:28;;;;;;;6.57;2.67;;;;;;;;;;5048501;28;20037;-76
2024/01/20 09:15:10;;;;;;;12.93;3.15;;;;;;;;;;5047292;28;20057;-79
2024/01/20 09:18:51;;;;;;;8.18;2.53;;;;;;;;;;5053608;28;20064;-78
2024/01/20 09:22:31;;;;;;;6.53;2.60;;;;;;;;;;5038183;28;20132;-78
2024/01/20 09:26:17;;;;;;;4.97;2.35;;;;;;;;;;5046905;28;20392;-77
2024/01/20 09:29:57;;;;;;;6.13;2.78;;;;;;;;;;5041478;28;20145;-76
2024/01/20 09:33:45;;;;;;;5.03;2.55;;;;;;;;;;5048796;28;20076;-76
2024/01/20 09:37:29;;;;;;;4.93;2.27;;;;;;;;;;5040621;28;20175;-71
2024/01/20 09:41:09;;;;;;;8.23;2.78;;;;;;;;;;5040943;28;20432;-75
2024/01/20 09:44:51;;;;;;;4.15;2.28;;;;;;;;;;5041685;28;20103;-76
2024/01/20 09:48:31;;;;;;;6.72;2.05;;;;;;;;;;5042749;28;20083;-72
2024/01/20 09:52:12;;;;;;;4.78;2.00;;;;;;;;;;5049384;28;20103;-75
2024/01/20 09:55:59;;;;;;;5.10;2.20;;;;;;;;;;5038229;28;20526;-74
2024/01/20 09:59:41;;;;;;;7.55;2.58;;;;;;;;;;5046729;28;20516;-77
2024/01/20 10:03:21;;;;;;;5.55;2.35;;;;;;;;;;5041515;28;20135;-76
2024/01/20 10:07:01;;;;;;;5.53;2.50;;;;;;;;;;5048518;28;20060;-74
2024/01/20 10:10:42;;;;;;;6.40;2.50;;;;;;;;;;5048340;28;20418;-75
2024/01/20 10:14:22;;;;;;;11.57;2.83;;;;;;;;;;5040080;28;20072;-78
2024/01/20 10:18:10;;;;;;;5.22;2.53;;;;;;;;;;5044522;28;20079;-75
2024/01/20 10:21:50;;;;;;;8.27;2.80;;;;;;;;;;5052533;28;20048;-77
2024/01/20 10:25:32;;;;;;;10.02;3.30;;;;;;;;;;5052802;28;20408;-77
2024/01/20 10:29:14;;;;;;;9.25;4.00;;;;;;;;;;5053255;28;20164;-79
2024/01/20 10:32:58;;;;;;;6.15;2.80;;;;;;;;;;5058188;28;20076;-80
2024/01/20 10:36:38;;;;;;;8.45;2.90;;;;;;;;;;5067509;28;20071;-80
2024/01/20 10:40:22;;;;;;;10.43;2.75;;;;;;;;;;5052186;28;20059;-80
2024/01/20 10:44:03;;;;;;;3.75;2.30;;;;;;;;;;5068499;28;20045;-79
2024/01/20 10:47:46;;;;;;;4.13;2.50;;;;;;;;;;5067481;28;20041;-80
2024/01/20 10:51:24;;;;;;;6.05;2.63;;;;;;;;;;5053503;28;20055;-79
2024/01/20 10:55:04;;;;;;;12.20;3.20;;;;;;;;;;5052624;28;20045;-77
2024/01/20 10:58:47;;;;;;;7.30;2.72;;;;;;;;;;5050338;28;20065;-78
2024/01/20 11:02:29;;;;;;;6.72;2.65;;;;;;;;;;5048487;28;20037;-81
2024/01/20 11:06:11;;;;;;;6.80;2.58;;;;;;;;;;5056256;28;20075;-79
2024/01/20 11:09:54;;;;;;;8.13;3.03;;;;;;;;;;5075315;28;20044;-80
2024/01/20 11:13:44;;;;;;;7.18;2.58;;;;;;;;;;5059237;28;20045;-81
2024/01/20 11:17:31;;;;;;;3.97;2.10;;;;;;;;;;5057067;28;20045;-80
2024/01/20 11:21:23;;;;;;;2.92;1.90;;;;;;;;;;5059930;28;20041;-78
2024/01/20 11:25:19;;;;;;;9.15;2.88;;;;;;;;;;5066878;28;20044;-81
2024/01/20 11:29:10;;;;;;;8.43;2.70;;;;;;;;;;5071361;28;20079;-81
2024/01/20 11:32:54;;;;;;;6.22;2.50;;;;;;;;;;5069253;28;20049;-79
2024/01/20 11:36:34;;;;;;;4.85;2.47;;;;;;;;;;5061628;28;20098;-81
2024/01/20 11:40:26;;;;;;;4.55;2.03;;;;;;;;;;5043566;28;20049;-80
2024/01/20 11:44:08;;;;;;;8.63;3.10;;;;;;;;;;5054305;28;20052;-80
2024/01/20 11:47:48;;;;;;;5.32;2.45;;;;;;;;;;5058945;28;20069;-81
2024/01/20 11:51:28;;;;;;;6.50;2.90;;;;;;;;;;5058140;28;20052;-79
2024/01/20 11:55:09;;;;;;;6.35;2.40;;;;;;;;;;5062316;28;20041;-78
2024/01/20 11:58:50;;;;;;;5.00;2.60;;;;;;;;;;5056674;28;20052;-78
2024/01/20 12:02:34;;;;;;;6.93;2.70;;;;;;;;;;5060095;28;20045;-81
2024/01/20 12:06:16;;;;;;;4.70;2.25;;;;;;;;;;5055239;28;20044;-77
2024/01/20 12:09:56;;;;;;;3.08;2.00;;;;;;;;;;5049465;28;20053;-79
2024/01/20 12:13:37;;;;;;;5.43;2.10;;;;;;;;;;5052414;28;20549;-78
2024/01/20 12:17:22;;;;;;;3.25;2.10;;;;;;;;;;5061966;28;20046;-81
2024/01/20 12:20:59;;;;;;;5.75;2.47;;;;;;;;;;5058812;28;20043;-79
2024/01/20 12:24:42;;;;;;;4.18;2.13;;;;;;;;;;5051886;28;20124;-81
2024/01/20 12:28:21;;;;;;;3.30;2.10;;;;;;;;;;5047560;28;20072;-79
2024/01/20 12:32:03;;;;;;;3.60;2.00;;;;;;;;;;5050702;28;20056;-79
2024/01/20 12:35:43;;;;;;;4.47;2.17;;;;;;;;;;5055423;28;20048;-80
2024/01/20 12:39:29;;;;;;;5.70;2.78;;;;;;;;;;5054969;28;20074;-80
2024/01/20 12:43:10;;;;;;;7.63;1.98;;;;;;;;;;5058270;28;20087;-80
2024/01/20 12:46:53;;;;;;;2.22;1.40;;;;;;;;;;5053722;28;20140;-79
2024/01/20 12:50:34;;;;;;;5.68;1.70;;;;;;;;;;5054959;28;20113;-80
2024/01/20 12:54:15;;;;;;;8.70;1.98;;;;;;;;;;5053572;28;20148;-79
2024/01/20 12:57:55;;;;;;;3.65;1.98;;;;;;;;;;5050104;28;20092;-77
2024/01/20 13:01:39;;;;;;;4.82;1.70;;;;;;;;;;5055827;28;20033;-78
2024/01/20 13:05:19;;;;;;;3.90;1.45;;;;;;;;;;5059702;28;20067;-78
2024/01/20 13:08:59;;;;;;;3.30;1.40;;;;;;;;;;5070633;28;20060;-78
2024/01/20 13:12:43;;;;;;;5.22;1.80;;;;;;;;;;5063191;28;20126;-80
2024/01/20 13:16:21;;;;;;;4.03;1.70;;;;;;;;;;5052909;28;20404;-78
2024/01/20 13:20:02;;;;;;;3.53;1.83;;;;;;;;;;5053685;28;20153;-74
2024/01/20 13:23:44;;;;;;;6.35;1.60;;;;;;;;;;5045399;28;20056;-73
2024/01/20 13:27:28;;;;;;;3.20;1.90;;;;;;;;;;5048907;28;20175;-78
2024/01/20 13:30:45;;;;;;;6.30;2.20;;;;;;;;;;5055615;28;20045;-74
2024/01/20 13:33:51;;;;;;;4.90;2.25;;;;;;;;;;5034521;28;20041;-75
2024/01/20 13:37:16;;;;;;;9.65;2.13;;;;;;;;;;5030779;28;20121;-77
2024/01/20 13:40:46;;;;;;;9.07;2.47;;;;;;;;;;5036286;28;20323;-76
2024/01/20 13:43:53;;;;;;;3.45;2.17;;;;;;;;;;5049395;28;20485;-77
2024/01/20 13:46:38;;;;;;;9.43;2.30;;;;;;;;;;5041794;28;20374;-77
2024/01/20 13:49:04;;;;;;;4.35;1.80;;;;;;;;;;5036152;28;20151;-72
2024/01/20 13:52:10;;;;;;;4.03;2.28;;;;;;;;;;5032878;28;20322;-71
2024/01/20 13:55:54;;;;;;;5.55;2.72;;;;;;;;;;5030243;28;20045;-73
2024/01/20 13:59:34;;;;;;;3.28;2.30;;;;;;;;;;5028642;28;20163;-75
2024/01/20 14:03:15;;;;;;;7.95;2.58;;;;;;;;;;5029522;28;20049;-74
2024/01/20 14:06:58;;;;;;;6.38;2.63;;;;;;;;;;5035633;28;20168;-71
2024/01/20 14:10:37;;;;;;;5.13;2.10;;;;;;;;;;5037253;28;20045;-71
2024/01/20 14:14:20;;;;;;;4.20;1.88;;;;;;;;;;5030083;28;20421;-73
2024/01/20 14:18:00;;;;;;;3.38;2.10;;;;;;;;;;5035499;28;20097;-72
2024/01/20 14:21:41;;;;;;;5.90;2.28;;;;;;;;;;5033684;28;20554;-74
2024/01/20 14:25:21;;;;;;;3.00;2.20;;;;;;;;;;5029787;28;20104;-74
2024/01/20 14:29:08;;;;;;;6.53;2.67;;;;;;;;;;5037386;28;20052;-73
2024/01/20 14:32:46;;;;;;;3.55;2.10;;;;;;;;;;5035249;28;20417;-73
2024/01/20 14:36:26;;;;;;;4.45;2.72;;;;;;;;;;5033830;28;20053;-70
2024/01/20 14:40:07;;;;;;;8.90;3.45;;;;;;;;;;5040581;28;20258;-70
2024/01/20 14:43:48;;;;;;;5.38;2.40;;;;;;;;;;5039145;28;20072;-73
2024/01/20 14:47:29;;;;;;;4.75;2.22;;;;;;;;;;5035302;28;20049;-74
2024/01/20 14:51:09;;;;;;;2.92;2.30;;;;;;;;;;5035512;28;20124;-69
2024/01/20 14:54:50;;;;;;;5.07;2.60;;;;;;;;;;5029683;28;20560;-78
2024/01/20 14:58:32;;;;;;;4.95;2.92;;;;;;;;;;5031088;28;20132;-77
2024/01/20 15:02:12;;;;;;;7.65;2.58;;;;;;;;;;5030771;28;20049;-75
2024/01/20 15:05:55;;;;;;;4.50;1.90;;;;;;;;;;5029647;28;20495;-73
2024/01/20 15:09:35;;;;;;;6.72;1.98;;;;;;;;;;5036609;28;20063;-77
2024/01/20 15:13:16;;;;;;;6.40;1.67;;;;;;;;;;5028256;28;20041;-70
2024/01/20 15:16:57;;;;;;;5.07;1.63;;;;;;;;;;5030095;28;20262;-75
2024/01/20 15:20:40;;;;;;;6.63;1.60;;;;;;;;;;5035094;28;20473;-73
2024/01/20 15:24:21;;;;;;;5.82;1.50;;;;;;;;;;5030220;28;20695;-73
2024/01/20 15:28:03;;;;;;;4.45;1.63;;;;;;;;;;5031775;28;20053;-75
2024/01/20 15:31:45;;;;;;;2.95;1.52;;;;;;;;;;5026755;28;20520;-77
2024/01/20 15:35:28;;;;;;;3.85;1.50;;;;;;;;;;5033333;28;20052;-76
2024/01/20 15:39:10;;;;;;;3.95;1.23;;;;;;;;;;5045615;28;20444;-79
2024/01/20 15:42:50;;;;;;;2.10;1.20;;;;;;;;;;5040718;28;20083;-76
2024/01/20 15:46:31;;;;;;;4.78;1.30;;;;;;;;;;5047116;28;20183;-75
2024/01/20 15:50:15;;;;;;;6.50;1.60;;;;;;;;;;5037456;28;20102;-74
2024/01/20 15:53:55;;;;;;;5.63;1.63;;;;;;;;;;5040980;28;20061;-76
2024/01/20 15:57:37;;;;;;;6.57;1.52;;;;;;;;;;5039780;28;20057;-78
2024/01/20 16:01:17;;;;;;;4.47;1.60;;;;;;;;;;5035629;28;20057;-77
2024/01/20 16:04:59;;;;;;;2.28;1.15;;;;;;;;;;5048017;28;20061;-76
2024/01/20 16:08:41;;;;;;;9.18;1.45;;;;;;;;;;5048116;28;20496;-75
2024/01/20 16:12:21;;;;;;;6.80;2.20;;;;;;;;;;5045497;28;20084;-76
2024/01/20 16:16:03;;;;;;;3.03;1.80;;;;;;;;;;5040991;28;22260;-75
2024/01/20 16:19:43;;;;;;;3.22;1.40;;;;;;;;;;5044819;28;20416;-77
2024/01/20 16:23:24;;;;;;;4.10;1.98;;;;;;;;;;5048341;28;20560;-77
2024/01/20 16:27:04;;;;;;;3.47;1.35;;;;;;;;;;5041828;28;20072;-77
2024/01/20 16:30:44;;;;;;;5.28;1.42;;;;;;;;;;5043358;28;20241;-75
2024/01/20 16:34:25;;;;;;;3.47;1.70;;;;;;;;;;5047434;28;20041;-73
2024/01/20 16:38:07;;;;;;;2.72;1.60;;;;;;;;;;5047987;28;20055;-75
2024/01/20 16:41:48;;;;;;;4.05;1.67;;;;;;;;;;5046990;28;20041;-75
2024/01/20 16:45:29;;;;;;;5.25;1.45;;;;;;;;;;5040607;28;20359;-73
2024/01/20 16:48:36;;;;;;;6.80;1.73;;;;;;;;;;5041024;28;20405;-73
2024/01/20 16:51:06;;;;;;;5.88;1.60;;;;;;;;;;5064343;28;20049;-73
2024/01/20 16:53:39;;;;;;;2.63;1.42;;;;;;;;;;5040857;28;20520;-73
2024/01/20 16:56:12;;;;;;;3.25;1.75;;;;;;;;;;5051442;28;20112;-72
2024/01/20 16:58:39;;;;;;;2.92;1.75;;;;;;;;;;5049243;28;20132;-72
2024/01/20 17:01:08;;;;;;;5.85;1.88;;;;;;;;;;5050319;28;20049;-72
2024/01/20 17:03:35;;;;;;;4.25;1.60;;;;;;;;;;5046447;28;20045;-71
2024/01/20 17:06:01;;;;;;;4.55;1.60;;;;;;;;;;5056115;28;20041;-71
2024/01/20 17:08:27;;;;;;;4.20;1.83;;;;;;;;;;5062829;28;20063;-73
2024/01/20 17:10:53;;;;;;;4.40;2.30;;;;;;;;;;5046015;28;20120;-72
2024/01/20 17:13:19;;;;;;;3.50;1.70;;;;;;;;;;5063696;28;20485;-73
2024/01/20 17:15:46;;;;;;;2.75;1.45;;;;;;;;;;5043176;28;20045;-72
2024/01/20 17:18:14;;;;;;;4.80;1.60;;;;;;;;;;5053707;28;20052;-70
2024/01/20 17:20:41;;;;;;;4.57;1.58;;;;;;;;;;5050910;28;20049;-71
2024/01/20 17:23:07;;;;;;;3.90;1.45;;;;;;;;;;5053628;28;20074;-70
2024/01/20 17:25:33;;;;;;;2.70;1.50;;;;;;;;;;5073188;28;20052;-70
2024/01/20 17:27:59;;;;;;;6.30;1.60;;;;;;;;;;5057796;28;20059;-74
2024/01/20 17:30:26;;;;;;;3.80;1.88;;;;;;;;;;5047317;28;20064;-69
2024/01/20 17:32:53;;;;;;;3.75;1.63;;;;;;;;;;5051028;28;20037;-73
2024/01/20 17:35:59;;;;;;;7.15;2.00;;;;;;;;;;5049180;28;20065;-70
2024/01/20 17:39:40;;;;;;;4.85;1.70;;;;;;;;;;5048325;28;20059;-75
2024/01/20 17:43:21;;;;;;;3.50;1.90;;;;;;;;;;5053219;28;20141;-75
2024/01/20 17:46:39;;;;;;;4.90;1.58;;;;;;;;;;5041731;28;20126;-72
2024/01/20 17:49:06;;;;;;;2.55;1.60;;;;;;;;;;5038549;28;20051;-75
2024/01/20 17:52:12;;;;;;;3.47;1.80;;;;;;;;;;5050238;28;20037;-74
2024/01/20 17:55:53;;;;;;;5.13;1.42;;;;;;;;;;5037585;28;20397;-74
2024/01/20 17:59:33;;;;;;;2.13;1.10;;;;;;;;;;5048660;28;20049;-74
2024/01/20 18:03:15;;;;;;;4.25;1.15;;;;;;;;;;5051038;28;20045;-72
2024/01/20 18:06:56;;;;;;;2.88;1.30;;;;;;;;;;5044626;28;20119;-72
2024/01/20 18:10:37;;;;;;;3.35;1.45;;;;;;;;;;5049742;28;20041;-69
2024/01/20 18:14:17;;;;;;;2.75;1.48;;;;;;;;;;5052112;28;20037;-69
2024/01/20 18:17:57;;;;;;;3.83;1.63;;;;;;;;;;5047255;28;20699;-71
2024/01/20 18:21:39;;;;;;;4.45;1.27;;;;;;;;;;5054981;28;20092;-73
2024/01/20 18:25:20;;;;;;;3.38;1.50;;;;;;;;;;5044766;28;20067;-70
2024/01/20 18:29:01;;;;;;;4.32;1.65;;;;;;;;;;5050694;28;20083;-71
2024/01/20 18:32:41;;;;;;;6.43;1.67;;;;;;;;;;5050966;28;20118;-68
2024/01/20 18:36:22;;;;;;;2.72;1.40;;;;;;;;;;5041019;28;20084;-70
2024/01/20 18:40:03;;;;;;;2.75;1.40;;;;;;;;;;5049576;28;20052;-71
2024/01/20 18:43:44;;;;;;;3.47;1.40;;;;;;;;;;5046092;28;20626;-69
2024/01/20 18:47:25;;;;;;;2.35;1.33;;;;;;;;;;5048781;28;20048;-70
2024/01/20 18:51:05;;;;;;;2.67;1.35;;;;;;;;;;5039574;28;20097;-69
2024/01/20 18:54:46;;;;;;;2.95;1.13;;;;;;;;;;5051841;28;20106;-69
2024/01/20 18:58:26;;;;;;;3.50;1.52;;;;;;;;;;5049808;28;20057;-75
2024/01/20 19:02:07;;;;;;;6.13;1.65;;;;;;;;;;5044901;28;20060;-71
2024/01/20 19:05:47;;;;;;;5.03;1.80;;;;;;;;;;5049585;28;20048;-68
2024/01/20 19:09:08;;;;;;;2.67;1.23;;;;;;;;;;5062769;28;20037;-71
2024/01/20 19:11:36;;;;;;;5.35;1.50;;;;;;;;;;5048066;28;20047;-74
2024/01/20 19:14:03;;;;;;;3.13;1.67;;;;;;;;;;5049607;28;20063;-73
2024/01/20 19:16:32;;;;;;;2.83;1.83;;;;;;;;;;5050886;28;20481;-72
2024/01/20 19:19:02;;;;;;;4.43;1.75;;;;;;;;;;5049726;28;20056;-74
2024/01/20 19:21:32;;;;;;;3.88;1.27;;;;;;;;;;5052039;28;20135;-72
2024/01/20 19:23:58;;;;;;;3.28;1.60;;;;;;;;;;5070503;28;20041;-73
2024/01/20 19:26:26;;;;;;;4.50;1.70;;;;;;;;;;5068310;28;20437;-72
2024/01/20 19:28:53;;;;;;;5.78;1.98;;;;;;;;;;5053657;28;21051;-74
2024/01/20 19:31:19;;;;;;;4.50;2.30;;;;;;;;;;5047313;28;20461;-77
2024/01/20 19:33:47;;;;;;;3.15;2.42;;;;;;;;;;5037973;28;20063;-70
2024/01/20 19:36:15;;;;;;;4.82;1.60;;;;;;;;;;5044507;28;20539;-73
2024/01/20 19:38:41;;;;;;;3.25;1.40;;;;;;;;;;5044836;28;20064;-70
2024/01/20 19:41:07;;;;;;;1.80;1.05;;;;;;;;;;5042344;28;20520;-72
2024/01/20 19:43:35;;;;;;;5.63;1.40;;;;;;;;;;5045740;28;20492;-73
2024/01/20 19:46:01;;;;;;;3.03;1.50;;;;;;;;;;5043874;28;21119;-70
2024/01/20 19:48:27;;;;;;;2.92;1.50;;;;;;;;;;5048828;28;20535;-68
2024/01/20 19:50:56;;;;;;;2.53;1.25;;;;;;;;;;5037995;28;20060;-69
2024/01/20 19:53:23;;;;;;;2.80;1.35;;;;;;;;;;5044988;28;20084;-70
2024/01/20 19:55:49;;;;;;;2.50;1.42;;;;;;;;;;5038149;28;20434;-72
2024/01/20 19:58:16;;;;;;;3.25;1.33;;;;;;;;;;5042960;28;20085;-73
2024/01/20 20:00:47;;;;;;;2.45;1.02;;;;;;;;;;5046311;28;20053;-74
2024/01/20 20:03:17;;;;;;;2.13;1.20;;;;;;;;;;5054555;28;20564;-73
2024/01/20 20:05:47;;;;;;;3.53;1.40;;;;;;;;;;5043737;28;20068;-72
2024/01/20 20:08:14;;;;;;;5.75;1.50;;;;;;;;;;5048101;28;20048;-70
2024/01/20 20:10:43;;;;;;;5.60;1.38;;;;;;;;;;5049292;28;20086;-69
2024/01/20 20:13:09;;;;;;;4.07;1.58;;;;;;;;;;5050710;28;20856;-70
2024/01/20 20:15:40;;;;;;;5.15;1.50;;;;;;;;;;5048035;28;20163;-69
2024/01/20 20:18:06;;;;;;;6.97;1.55;;;;;;;;;;5038072;28;20052;-73
2024/01/20 20:20:32;;;;;;;5.22;1.38;;;;;;;;;;5036698;28;20044;-72
2024/01/20 20:22:59;;;;;;;3.38;1.90;;;;;;;;;;5045236;28;20053;-69
2024/01/20 20:25:27;;;;;;;3.58;1.88;;;;;;;;;;5051347;28;20063;-70
2024/01/20 20:27:55;;;;;;;3.92;1.55;;;;;;;;;;5043847;28;20052;-71
2024/01/20 20:30:27;;;;;;;5.10;2.20;;;;;;;;;;5052697;28;20343;-72
2024/01/20 20:32:54;;;;;;;6.93;2.63;;;;;;;;;;5064971;28;20067;-70
2024/01/20 20:35:23;;;;;;;5.70;1.90;;;;;;;;;;5052538;28;20045;-73
2024/01/20 20:37:50;;;;;;;4.43;1.60;;;;;;;;;;5039868;28;20049;-69
2024/01/20 20:40:20;;;;;;;2.40;1.50;;;;;;;;;;5044277;28;20068;-70
2024/01/20 20:42:46;;;;;;;3.13;1.65;;;;;;;;;;5047837;28;20104;-70
2024/01/20 20:45:13;;;;;;;4.90;1.65;;;;;;;;;;5047896;28;20041;-70
2024/01/20 20:47:39;;;;;;;7.20;1.80;;;;;;;;;;5050573;28;20067;-68